Dorado Leader — 3EIF6 — position and weather

sailwx.info

Track history (hours):
 
Tides and Currents Weather Stations Pressure Air Temp Water Temp Dewpoint Dewpoint Depression Visibility Wind Speed Wind Dir Waves Ship Positions

Dorado Leader

Last reported at 2018-Feb-06 21:58 UTC. Time now 2018-Feb-21 13:29 UTC.
Position N 18°18' W 063°38'.
Warning: this ship's position is 14 days out of date.

Length 199.9 m; beam 32.2 m.

Type: Cargo ship. MMSI: 372140000.

Date/timePositionNaut miles runAvg speedWind from/ knotsBaromVisibWave heightAir tempDewpointWater temp
2018-Feb-06 21:58N 18°18' W 063°38'714.0
2018-Feb-06 21:28N 18°13' W 063°33'714.0
2018-Feb-06 20:58N 18°08' W 063°28'713.9
2018-Feb-06 20:28N 18°02' W 063°23'1515.7
2018-Feb-06 19:30N 17°49' W 063°15'1117.7
2018-Feb-06 18:53N 17°40' W 063°09'717.1
2018-Feb-06 18:28N 17°33' W 063°07'1516.9
2018-Feb-06 17:36N 17°19' W 063°05'216.6
2018-Feb-06 17:28N 17°17' W 063°04'4417.6
2018-Feb-06 14:59N 16°34' W 062°55'917.4
2018-Feb-06 14:28N 16°25' W 062°53'917.5
2018-Feb-06 13:57N 16°16' W 062°52'817.1
2018-Feb-06 13:30N 16°09' W 062°50'  
2018-Feb-02 19:00N 14°07' W 060°49'510.2
2018-Feb-02 18:30N 14°10' W 060°53'3 6.7
2018-Feb-02 18:00N 14°12' W 060°56'5 8.7
2018-Feb-02 17:29N 14°10' W 061°01'611.1
2018-Feb-02 16:59N 14°05' W 061°03'6 0.6
2018-Feb-02 07:32N 14°03' W 061°08'1 6.8
2018-Feb-02 07:25N 14°03' W 061°09'12 0.8
2018-Feb-01 16:56N 14°15' W 061°10'512.3
2018-Feb-01 16:30N 14°20' W 061°10'611.9
2018-Feb-01 16:00N 14°26' W 061°10'610.9
2018-Feb-01 15:30N 14°31' W 061°09'510.3
2018-Feb-01 15:00N 14°35' W 061°05'2 0.4
2018-Feb-01 10:48N 14°36' W 061°04'0 0.0
2018-Feb-01 10:30N 14°36' W 061°04'0 0.0
2018-Feb-01 09:45N 14°36' W 061°04'0 1.0
2018-Feb-01 09:30N 14°36' W 061°04'3 5.0
2018-Feb-01 09:00N 14°35' W 061°06'2 4.9
2018-Feb-01 08:30N 14°35' W 061°09'8 8.3
2018-Feb-01 07:30N 14°35' W 061°17'2 3.9
2018-Feb-01 06:59N 14°34' W 061°19'1 1.1
2018-Feb-01 06:28N 14°35' W 061°20'0 0.8
2018-Feb-01 06:00N 14°35' W 061°20'0 1.0
2018-Feb-01 05:30N 14°35' W 061°19'1 1.0
2018-Feb-01 04:59N 14°36' W 061°19'2 3.2
2018-Feb-01 04:30N 14°37' W 061°19'59 5.2
2018-Jan-31 17:14N 15°35' W 061°32'417.6
2018-Jan-31 17:00N 15°39' W 061°32'2518.1
2018-Jan-31 15:39N 16°03' W 061°31'215.2
2018-Jan-31 15:30N 16°06' W 061°31'4 8.8
2018-Jan-31 15:00N 16°10' W 061°32'4 7.8
2018-Jan-31 14:28N 16°14' W 061°32'0 0.2
2018-Jan-31 12:57N 16°14' W 061°33'0 0.0
2018-Jan-31 12:24N 16°14' W 061°33'0 0.0
2018-Jan-31 11:54N 16°14' W 061°33'0 0.0
2018-Jan-31 11:30N 16°14' W 061°33'0 0.0
2018-Jan-31 10:36N 16°14' W 061°33'0 0.1
2018-Jan-31 10:30N 16°14' W 061°33'0 0.0
2018-Jan-31 10:00N 16°14' W 061°33'0 0.0
2018-Jan-31 09:31N 16°14' W 061°33'2 4.3
2018-Jan-31 09:01N 16°12' W 061°32'4 7.7
2018-Jan-31 08:30N 16°08' W 061°30'3 5.0
2018-Jan-31 08:00N 16°06' W 061°30'2 4.4
2018-Jan-31 07:30N 16°04' W 061°30'3 6.9
2018-Jan-31 07:01N 16°00' W 061°30'14 6.9
2018-Jan-31 05:01N 15°47' W 061°33'0 9.6
2018-Jan-31 05:00N 15°47' W 061°33'5 9.2
2018-Jan-31 04:30N 15°46' W 061°38'510.2
2018-Jan-31 03:58N 15°48' W 061°43'511.4
2018-Jan-31 03:31N 15°52' W 061°47'1316.2
2018-Jan-31 02:44N 16°02' W 061°55'417.2
2018-Jan-31 02:31N 16°06' W 061°56'917.2
2018-Jan-31 02:01N 16°14' W 061°58'816.6
2018-Jan-31 01:30N 16°22' W 062°00'816.7
2018-Jan-31 01:01N 16°31' W 062°00'1716.9
2018-Jan-31 00:01N 16°47' W 062°00'917.4
2018-Jan-30 23:31N 16°56' W 062°00'917.6
2018-Jan-30 23:00N 17°05' W 062°00'713.2
2018-Jan-30 22:30N 17°09' W 061°54'3 3.1
2018-Jan-30 21:29N 17°08' W 061°51'0 0.0
2018-Jan-30 20:59N 17°08' W 061°51'0 0.0
2018-Jan-30 20:26N 17°08' W 061°51'0 0.0
2018-Jan-30 19:59N 17°08' W 061°51'0 0.0
2018-Jan-30 19:29N 17°08' W 061°51'0 0.0
2018-Jan-30 19:00N 17°07' W 061°51'1 1.1
2018-Jan-30 18:30N 17°08' W 061°52'4 7.1
2018-Jan-30 18:00N 17°09' W 061°55'3 6.3
2018-Jan-30 17:30N 17°10' W 061°58'1 2.8
2018-Jan-30 17:00N 17°11' W 061°60'2 3.9
2018-Jan-30 16:30N 17°12' W 062°01'1 1.8
2018-Jan-30 15:59N 17°12' W 062°01'1 2.2
2018-Jan-30 15:29N 17°13' W 062°00'1 2.3
2018-Jan-30 14:59N 17°14' W 061°60'1 1.8
2018-Jan-30 14:30N 17°15' W 061°59'3 2.8
2018-Jan-30 13:30N 17°12' W 061°59'3 5.2
2018-Jan-30 13:00N 17°10' W 062°00'3 5.7
2018-Jan-30 12:29N 17°09' W 062°03'1 1.6
2018-Jan-30 12:00N 17°09' W 062°04'1 2.1
2018-Jan-30 11:30N 17°10' W 062°03'2 2.3
2018-Jan-30 10:30N 17°12' W 062°02'2 2.0
2018-Jan-30 09:30N 17°13' W 062°00'3 5.3
2018-Jan-30 09:00N 17°10' W 062°00'4 8.9
2018-Jan-30 08:30N 17°08' W 062°04'5 9.4
2018-Jan-30 08:00N 17°07' W 062°09'510.0
2018-Jan-30 07:29N 17°06' W 062°14'5 9.6
2018-Jan-30 07:00N 17°04' W 062°19'6 9.6
2018-Jan-30 06:25N 17°01' W 062°24'4 9.9
2018-Jan-30 06:00N 16°58' W 062°27'510.0
2018-Jan-30 05:30N 16°55' W 062°31'611.0
2018-Jan-30 04:58N 16°52' W 062°36'711.4
2018-Jan-30 04:22N 16°48' W 062°42'12 0.4
2018-Jan-28 22:42N 16°57' W 062°50'2 9.5
2018-Jan-28 22:28N 16°59' W 062°51'4 9.4
2018-Jan-28 22:00N 17°03' W 062°52'16 3.5
2018-Jan-28 17:22N 17°17' W 062°43'1 0.4
2018-Jan-28 13:37N 17°16' W 062°44'1 5.8
2018-Jan-28 13:21N 17°15' W 062°45'8 6.4
2018-Jan-28 12:04N 17°12' W 062°53'1 7.1
2018-Jan-28 11:59N 17°12' W 062°54'3712.5
2018-Jan-28 09:03N 16°56' W 063°29'  
Track history (hours):
 
Tides and Currents Weather Stations Pressure Air Temp Water Temp Dewpoint Dewpoint Depression Visibility Wind Speed Wind Dir Waves Ship Positions

Dorado Leader

Last reported at 2018-Feb-06 21:58 UTC. Time now 2018-Feb-21 13:29 UTC.
Position N 18°18' W 063°38'.
Warning: this ship's position is 14 days out of date.

Length 199.9 m; beam 32.2 m.

Type: Cargo ship. MMSI: 372140000.

Date/timePositionNaut miles runAvg speedWind from/ knotsBaromVisibWave heightAir tempDewpointWater temp
2018-Feb-06 21:58N 18°18' W 063°38'714.0
2018-Feb-06 21:28N 18°13' W 063°33'714.0
2018-Feb-06 20:58N 18°08' W 063°28'713.9
2018-Feb-06 20:28N 18°02' W 063°23'1515.7
2018-Feb-06 19:30N 17°49' W 063°15'1117.7
2018-Feb-06 18:53N 17°40' W 063°09'717.1
2018-Feb-06 18:28N 17°33' W 063°07'1516.9
2018-Feb-06 17:36N 17°19' W 063°05'216.6
2018-Feb-06 17:28N 17°17' W 063°04'4417.6
2018-Feb-06 14:59N 16°34' W 062°55'917.4
2018-Feb-06 14:28N 16°25' W 062°53'917.5
2018-Feb-06 13:57N 16°16' W 062°52'817.1
2018-Feb-06 13:30N 16°09' W 062°50'  
2018-Feb-02 19:00N 14°07' W 060°49'510.2
2018-Feb-02 18:30N 14°10' W 060°53'3 6.7
2018-Feb-02 18:00N 14°12' W 060°56'5 8.7
2018-Feb-02 17:29N 14°10' W 061°01'611.1
2018-Feb-02 16:59N 14°05' W 061°03'6 0.6
2018-Feb-02 07:32N 14°03' W 061°08'1 6.8
2018-Feb-02 07:25N 14°03' W 061°09'12 0.8
2018-Feb-01 16:56N 14°15' W 061°10'512.3
2018-Feb-01 16:30N 14°20' W 061°10'611.9
2018-Feb-01 16:00N 14°26' W 061°10'610.9
2018-Feb-01 15:30N 14°31' W 061°09'510.3
2018-Feb-01 15:00N 14°35' W 061°05'2 0.4
2018-Feb-01 10:48N 14°36' W 061°04'0 0.0
2018-Feb-01 10:30N 14°36' W 061°04'0 0.0
2018-Feb-01 09:45N 14°36' W 061°04'0 1.0
2018-Feb-01 09:30N 14°36' W 061°04'3 5.0
2018-Feb-01 09:00N 14°35' W 061°06'2 4.9
2018-Feb-01 08:30N 14°35' W 061°09'8 8.3
2018-Feb-01 07:30N 14°35' W 061°17'2 3.9
2018-Feb-01 06:59N 14°34' W 061°19'1 1.1
2018-Feb-01 06:28N 14°35' W 061°20'0 0.8
2018-Feb-01 06:00N 14°35' W 061°20'0 1.0
2018-Feb-01 05:30N 14°35' W 061°19'1 1.0
2018-Feb-01 04:59N 14°36' W 061°19'2 3.2
2018-Feb-01 04:30N 14°37' W 061°19'59 5.2
2018-Jan-31 17:14N 15°35' W 061°32'417.6
2018-Jan-31 17:00N 15°39' W 061°32'2518.1
2018-Jan-31 15:39N 16°03' W 061°31'215.2
2018-Jan-31 15:30N 16°06' W 061°31'4 8.8
2018-Jan-31 15:00N 16°10' W 061°32'4 7.8
2018-Jan-31 14:28N 16°14' W 061°32'0 0.2
2018-Jan-31 12:57N 16°14' W 061°33'0 0.0
2018-Jan-31 12:24N 16°14' W 061°33'0 0.0
2018-Jan-31 11:54N 16°14' W 061°33'0 0.0
2018-Jan-31 11:30N 16°14' W 061°33'0 0.0
2018-Jan-31 10:36N 16°14' W 061°33'0 0.1
2018-Jan-31 10:30N 16°14' W 061°33'0 0.0
2018-Jan-31 10:00N 16°14' W 061°33'0 0.0
2018-Jan-31 09:31N 16°14' W 061°33'2 4.3
2018-Jan-31 09:01N 16°12' W 061°32'4 7.7
2018-Jan-31 08:30N 16°08' W 061°30'3 5.0
2018-Jan-31 08:00N 16°06' W 061°30'2 4.4
2018-Jan-31 07:30N 16°04' W 061°30'3 6.9
2018-Jan-31 07:01N 16°00' W 061°30'14 6.9
2018-Jan-31 05:01N 15°47' W 061°33'0 9.6
2018-Jan-31 05:00N 15°47' W 061°33'5 9.2
2018-Jan-31 04:30N 15°46' W 061°38'510.2
2018-Jan-31 03:58N 15°48' W 061°43'511.4
2018-Jan-31 03:31N 15°52' W 061°47'1316.2
2018-Jan-31 02:44N 16°02' W 061°55'417.2
2018-Jan-31 02:31N 16°06' W 061°56'917.2
2018-Jan-31 02:01N 16°14' W 061°58'816.6
2018-Jan-31 01:30N 16°22' W 062°00'816.7
2018-Jan-31 01:01N 16°31' W 062°00'1716.9
2018-Jan-31 00:01N 16°47' W 062°00'917.4
2018-Jan-30 23:31N 16°56' W 062°00'917.6
2018-Jan-30 23:00N 17°05' W 062°00'713.2
2018-Jan-30 22:30N 17°09' W 061°54'3 3.1
2018-Jan-30 21:29N 17°08' W 061°51'0 0.0
2018-Jan-30 20:59N 17°08' W 061°51'0 0.0
2018-Jan-30 20:26N 17°08' W 061°51'0 0.0
2018-Jan-30 19:59N 17°08' W 061°51'0 0.0
2018-Jan-30 19:29N 17°08' W 061°51'0 0.0
2018-Jan-30 19:00N 17°07' W 061°51'1 1.1
2018-Jan-30 18:30N 17°08' W 061°52'4 7.1
2018-Jan-30 18:00N 17°09' W 061°55'3 6.3
2018-Jan-30 17:30N 17°10' W 061°58'1 2.8
2018-Jan-30 17:00N 17°11' W 061°60'2 3.9
2018-Jan-30 16:30N 17°12' W 062°01'1 1.8
2018-Jan-30 15:59N 17°12' W 062°01'1 2.2
2018-Jan-30 15:29N 17°13' W 062°00'1 2.3
2018-Jan-30 14:59N 17°14' W 061°60'1 1.8
2018-Jan-30 14:30N 17°15' W 061°59'3 2.8
2018-Jan-30 13:30N 17°12' W 061°59'3 5.2
2018-Jan-30 13:00N 17°10' W 062°00'3 5.7
2018-Jan-30 12:29N 17°09' W 062°03'1 1.6
2018-Jan-30 12:00N 17°09' W 062°04'1 2.1
2018-Jan-30 11:30N 17°10' W 062°03'2 2.3
2018-Jan-30 10:30N 17°12' W 062°02'2 2.0
2018-Jan-30 09:30N 17°13' W 062°00'3 5.3
2018-Jan-30 09:00N 17°10' W 062°00'4 8.9
2018-Jan-30 08:30N 17°08' W 062°04'5 9.4
2018-Jan-30 08:00N 17°07' W 062°09'510.0
2018-Jan-30 07:29N 17°06' W 062°14'5 9.6
2018-Jan-30 07:00N 17°04' W 062°19'6 9.6
2018-Jan-30 06:25N 17°01' W 062°24'4 9.9
2018-Jan-30 06:00N 16°58' W 062°27'510.0
2018-Jan-30 05:30N 16°55' W 062°31'611.0
2018-Jan-30 04:58N 16°52' W 062°36'711.4
2018-Jan-30 04:22N 16°48' W 062°42'12 0.4
2018-Jan-28 22:42N 16°57' W 062°50'2 9.5
2018-Jan-28 22:28N 16°59' W 062°51'4 9.4
2018-Jan-28 22:00N 17°03' W 062°52'16 3.5
2018-Jan-28 17:22N 17°17' W 062°43'1 0.4
2018-Jan-28 13:37N 17°16' W 062°44'1 5.8
2018-Jan-28 13:21N 17°15' W 062°45'8 6.4
2018-Jan-28 12:04N 17°12' W 062°53'1 7.1
2018-Jan-28 11:59N 17°12' W 062°54'3712.5
2018-Jan-28 09:03N 16°56' W 063°29'  

Dump ship's entire track history